This is the latest recevied weather packets stored in our database for station/object NR0Q. If no packets are shown the sender has not sent any weather packets the latest 10 day(s).
| Time | Temp. | Humidity | Pressure | Rain* | Wind** | Luminosity | Snow |
|---|---|---|---|---|---|---|---|
| 1777496401 | 18.33° C | 48% | 1017.6 hPa | 0 mm | - | - | - |
| 1777495501 | 18.33° C | 51% | 1017.6 hPa | 0 mm | - | - | - |
| 1777493701 | 18.89° C | 49% | 1017.6 hPa | 0 mm | - | - | - |
| 1777492801 | 18.33° C | 48% | 1018.6 hPa | 0 mm | - | - | - |
| 1777491901 | 18.33° C | 49% | 1018.6 hPa | 0 mm | - | - | - |
| 1777491001 | 18.33° C | 49% | 1018.6 hPa | 0 mm | - | - | - |
| 1777490101 | 17.78° C | 50% | 1018.6 hPa | 0 mm | - | - | - |
| 1777489201 | 17.78° C | 48% | 1018.6 hPa | 0 mm | - | - | - |
| 1777488302 | 18.33° C | 50% | 1018.6 hPa | 0 mm | - | - | - |
| 1777487401 | 18.33° C | 48% | 1018.6 hPa | 0 mm | - | - | - |
| 1777486501 | 17.78° C | 49% | 0 hPa | 0 mm | - | - | - |
| 1777485601 | 17.78° C | 49% | 0 hPa | 0 mm | - | - | - |
| 1777484701 | 17.22° C | 49% | 0 hPa | 0 mm | - | - | - |
| 1777483801 | 16.67° C | 50% | 1020.7 hPa | 0 mm | - | - | - |
| 1777482901 | 17.22° C | 49% | 1020.7 hPa | 0 mm | - | - | - |
| 1777482001 | 16.67° C | 50% | 1020.7 hPa | 0 mm | - | - | - |
| 1777481101 | 17.22° C | 48% | 1020.7 hPa | 0 mm | - | - | - |
| 1777480201 | 15.56° C | 52% | 1020.7 hPa | 0 mm | - | - | - |
| 1777477501 | 15.56° C | 55% | 1020.7 hPa | 0 mm | - | - | - |
| 1777476601 | 15° C | 56% | 1020.7 hPa | 0 mm | - | - | - |
| 1777475701 | 15° C | 57% | 1020.7 hPa | 0 mm | - | - | - |
| 1777474802 | 13.89° C | 62% | 1020.7 hPa | 0 mm | - | - | - |
| 1777473901 | 12.78° C | 65% | 1020.7 hPa | 0 mm | - | - | - |
| 1777473001 | 11.67° C | 65% | 1020.7 hPa | 0 mm | - | - | - |
* Rain latest hour (hover to see other rain measurements)
** Current wind speed in m/s (hover to see current wind gust speed)